SKUC/AUC METAR and TAF weather

Enter ICAO airport designator
Station Type Date Time Source
SKUC METAR 2022/06/28 23:00 UTC NOAA

SKUC 282300Z 10003KT 9999 BKN017 24/24 Q1012 RMK A2990


Station Type Date Time Source
SKUC Decoded METAR 2022/06/28 23:00 UTC NOAA

Arauca / Santiago Perez, Colombia (SKUC) 07-04N 070-44W 128M
Jun 28, 2022 - 07:00 PM EDT / 2022.06.28 2300 UTC
Wind: from the E (100 degrees) at 3 MPH (3 KT):0
Visibility: greater than 7 mile(s):0
Sky conditions: mostly cloudy
Temperature: 75 F (24 C)
Dew Point: 75 F (24 C)
Relative Humidity: 100%
Pressure (altimeter): 29.88 in. Hg (1012 hPa)
ob: SKUC 282300Z 10003KT 9999 BKN017 24/24 Q1012 RMK A2990
cycle: 23

Station Type Date Time Source
SKUC TAF UTC NOAA

Error!

Example: see airport list